Time;durP1;ratioP1;P1;durP2;ratioP2;P2;SDS_P1;SDS_P2;PMS_P1;PMS_P2;Temp;Humidity;BMP_temperature;BMP_pressure;BME280_temperature;BME280_humidity;BME280_pressure;Samples;Min_cycle;Max_cycle;Signal;HPM_P1;HPM_P2
2022/07/31 00:00:25;;;;;;;6.67;5.43;;;22.10;69.70;;;24.87;50.96;101728.97;5114162;28;20191;-64
2022/07/31 00:02:53;;;;;;;5.60;5.03;;;22.10;69.90;;;24.87;51.20;101736.22;5114858;28;20287;-63
2022/07/31 00:05:20;;;;;;;6.70;5.83;;;22.10;70.00;;;24.87;51.56;101733.53;5114900;28;20191;-63
2022/07/31 00:07:48;;;;;;;5.60;5.10;;;22.10;70.10;;;24.86;51.66;101731.91;5115056;28;20180;-63
2022/07/31 00:10:15;;;;;;;6.77;5.47;;;22.10;70.00;;;24.83;51.63;101735.91;5114388;28;20636;-63
2022/07/31 00:12:44;;;;;;;8.67;6.00;;;22.10;70.10;;;24.82;51.36;101733.44;5112256;28;20215;-62
2022/07/31 00:15:12;;;;;;;8.60;5.67;;;22.00;69.90;;;24.80;51.37;101724.78;5114285;28;20586;-63
2022/07/31 00:17:41;;;;;;;6.07;5.47;;;22.00;70.10;;;24.79;51.58;101723.97;5113749;27;20203;-62
2022/07/31 00:20:14;;;;;;;5.70;5.20;;;22.00;70.40;;;24.79;51.32;101720.47;5114544;28;20194;-64
2022/07/31 00:22:44;;;;;;;8.43;6.07;;;22.00;70.30;;;24.77;52.05;101726.09;5113859;28;20212;-64
2022/07/31 00:25:14;;;;;;;5.53;4.83;;;22.00;70.50;;;24.79;52.18;101723.97;5114295;28;20301;-64
2022/07/31 00:27:42;;;;;;;6.60;5.83;;;22.00;70.50;;;24.81;51.82;101719.19;5112595;28;20184;-64
2022/07/31 00:30:12;;;;;;;6.97;6.37;;;22.00;70.20;;;24.85;51.36;101714.09;5114365;28;20652;-62
2022/07/31 00:32:40;;;;;;;5.90;5.40;;;22.10;69.70;;;24.88;51.43;101710.91;5113630;28;20299;-64
2022/07/31 00:35:09;;;;;;;6.53;5.90;;;22.10;69.50;;;24.88;50.93;101705.53;5113936;28;20667;-65
2022/07/31 00:37:40;;;;;;;7.00;6.23;;;22.10;69.20;;;24.89;50.58;101701.75;5113742;28;20202;-65
2022/07/31 00:40:12;;;;;;;6.37;5.80;;;22.10;68.60;;;24.88;50.17;101700.16;5114400;28;20227;-64
2022/07/31 00:42:39;;;;;;;6.43;5.87;;;22.10;68.20;;;24.87;50.60;101696.63;5114008;27;20238;-63
2022/07/31 00:45:07;;;;;;;7.00;6.30;;;22.10;68.40;;;24.89;49.94;101696.38;5111019;28;20196;-64
2022/07/31 00:47:36;;;;;;;8.80;7.17;;;22.10;68.30;;;24.92;50.20;101690.50;5113859;28;20203;-63
2022/07/31 00:50:07;;;;;;;8.47;7.67;;;22.10;68.10;;;24.89;50.06;101686.41;5114723;28;20188;-65
2022/07/31 00:52:34;;;;;;;6.13;5.23;;;22.20;67.80;;;24.89;50.46;101693.69;5114093;28;20299;-64
2022/07/31 00:55:02;;;;;;;9.47;8.57;;;22.20;67.90;;;24.89;50.03;101696.38;5114258;28;20192;-62
2022/07/31 00:57:30;;;;;;;7.37;6.67;;;22.20;67.90;;;24.87;50.34;101688.53;5114635;28;20191;-64
2022/07/31 00:59:57;;;;;;;7.57;6.17;;;22.20;68.00;;;24.90;50.60;101687.25;5113228;28;20214;-63
2022/07/31 01:02:25;;;;;;;9.07;7.10;;;22.20;68.00;;;24.94;49.87;101691.06;5112848;28;20214;-63
2022/07/31 01:04:53;;;;;;;8.27;6.87;;;22.20;67.90;;;24.94;49.96;101699.16;5114473;28;20645;-64
2022/07/31 01:07:21;;;;;;;9.50;6.90;;;22.20;67.50;;;24.92;49.88;101695.88;5114159;28;20188;-63
2022/07/31 01:09:52;;;;;;;7.67;6.40;;;22.20;67.50;;;24.92;50.25;101695.88;5113509;28;20184;-64
2022/07/31 01:12:28;;;;;;;8.00;5.53;;;22.20;67.90;;;24.93;49.85;101697.53;5112997;28;20211;-64
2022/07/31 01:15:02;;;;;;;7.03;5.97;;;22.20;67.90;;;24.95;50.06;101690.03;5113501;28;20203;-63
2022/07/31 01:17:31;;;;;;;6.87;6.23;;;22.20;67.80;;;24.92;50.04;101689.69;5112495;28;20188;-64
2022/07/31 01:20:00;;;;;;;9.90;5.70;;;22.20;67.50;;;24.90;49.56;101676.47;5113444;28;20218;-64
2022/07/31 01:22:51;;;;;;;8.47;7.67;;;22.20;67.50;;;24.83;50.48;101670.44;5111972;28;20624;-62
2022/07/31 01:25:39;;;;;;;8.33;7.40;;;22.20;68.00;;;24.74;50.96;101672.69;5113271;28;20612;-63
2022/07/31 01:28:27;;;;;;;9.43;7.80;;;22.20;68.50;;;24.66;51.15;101666.88;5113306;28;20278;-63
2022/07/31 01:31:05;;;;;;;7.90;6.70;;;22.10;69.00;;;24.62;51.21;101669.25;5113243;28;20210;-62
2022/07/31 01:34:02;;;;;;;9.37;7.17;;;22.10;69.30;;;24.62;51.73;101663.88;5112245;28;20189;-63
2022/07/31 01:36:33;;;;;;;8.20;7.40;;;22.00;69.60;;;24.67;51.84;101661.28;5113584;28;20187;-63
2022/07/31 01:39:02;;;;;;;8.90;8.10;;;22.00;69.80;;;24.69;51.73;101655.63;5113309;28;20601;-64
2022/07/31 01:41:37;;;;;;;10.90;9.87;;;22.00;70.20;;;24.70;51.75;101649.16;5113145;28;20218;-63
2022/07/31 01:44:07;;;;;;;12.17;10.60;;;22.00;70.50;;;24.69;52.58;101653.75;5113715;28;20520;-65
2022/07/31 01:46:45;;;;;;;11.20;10.10;;;22.00;70.70;;;24.63;52.21;101651.22;5113597;28;20270;-63
2022/07/31 01:49:17;;;;;;;10.90;9.83;;;22.00;70.80;;;24.58;52.62;101649.25;5113416;28;20180;-64
2022/07/31 01:51:48;;;;;;;10.20;9.20;;;22.00;70.80;;;24.56;52.64;101659.47;5110910;28;20244;-64
2022/07/31 01:54:19;;;;;;;10.50;8.93;;;21.90;70.80;;;24.55;52.67;101648.94;5113441;28;20556;-63
2022/07/31 01:56:48;;;;;;;12.33;9.13;;;21.90;70.90;;;24.53;52.82;101653.75;5115849;28;20210;-64
2022/07/31 01:59:19;;;;;;;8.93;8.03;;;21.90;71.40;;;24.51;52.74;101661.25;5116956;28;20211;-63
2022/07/31 02:01:53;;;;;;;11.20;10.17;;;21.90;71.50;;;24.56;52.97;101664.00;5117180;28;20203;-64
2022/07/31 02:04:22;;;;;;;10.97;9.67;;;21.90;71.90;;;24.59;52.92;101658.16;5117566;28;20191;-63
2022/07/31 02:06:51;;;;;;;14.17;10.60;;;21.80;71.80;;;24.52;52.87;101658.31;5116076;28;20597;-63
2022/07/31 02:09:21;;;;;;;9.70;8.47;;;21.90;72.20;;;24.42;52.86;101652.75;5117214;28;20187;-63
2022/07/31 02:11:50;;;;;;;12.43;9.23;;;21.80;71.60;;;24.34;53.11;101660.44;5117124;28;20211;-64
2022/07/31 02:14:23;;;;;;;9.60;8.70;;;21.80;71.60;;;24.26;53.17;101647.34;5117355;28;20196;-63
2022/07/31 02:16:53;;;;;;;9.80;8.90;;;21.70;71.40;;;24.22;53.21;101653.22;5117874;28;20187;-64
2022/07/31 02:19:24;;;;;;;9.20;8.40;;;21.60;72.20;;;24.21;53.15;101654.28;5117435;28;20204;-63
2022/07/31 02:21:52;;;;;;;11.73;8.83;;;21.60;71.60;;;24.24;52.58;101653.00;5115769;28;20216;-63
2022/07/31 02:24:19;;;;;;;8.07;7.47;;;21.60;71.60;;;24.29;52.98;101647.69;5115549;28;20196;-63
2022/07/31 02:26:47;;;;;;;8.93;8.13;;;21.60;71.90;;;24.36;53.13;101648.38;5117559;28;20192;-61
2022/07/31 02:29:18;;;;;;;9.40;8.43;;;21.60;71.90;;;24.41;52.44;101644.94;5121658;28;20192;-63
2022/07/31 02:31:49;;;;;;;7.77;7.00;;;21.60;71.60;;;24.45;53.06;101648.75;5124953;28;20256;-64
2022/07/31 02:34:34;;;;;;;8.77;7.93;;;21.70;72.00;;;24.50;52.78;101640.78;5133830;28;20188;-64
2022/07/31 02:37:03;;;;;;;9.03;8.13;;;21.70;71.50;;;24.45;52.38;101641.50;5119148;28;20189;-64
2022/07/31 02:39:34;;;;;;;9.53;8.67;;;21.70;71.20;;;24.35;52.43;101641.34;5096219;28;20665;-63
2022/07/31 02:42:02;;;;;;;8.70;7.83;;;21.70;70.70;;;24.29;52.59;101638.81;5094921;28;20220;-63
2022/07/31 02:44:33;;;;;;;9.40;8.47;;;21.70;70.80;;;24.24;52.90;101634.16;5096014;28;20196;-64
2022/07/31 02:47:03;;;;;;;9.73;8.23;;;21.70;70.80;;;24.20;53.01;101633.81;5095871;28;20200;-64
2022/07/31 02:49:33;;;;;;;7.50;6.70;;;21.60;71.70;;;24.18;52.62;101632.41;5095762;28;20189;-64
2022/07/31 02:52:03;;;;;;;8.80;8.00;;;21.60;70.70;;;24.19;52.90;101626.81;5110513;28;20302;-63
2022/07/31 02:54:33;;;;;;;8.37;7.57;;;21.60;71.20;;;24.20;52.63;101627.59;5116143;28;20188;-64
2022/07/31 02:57:02;;;;;;;10.63;7.87;;;21.60;71.40;;;24.16;52.80;101629.97;5116322;28;20193;-64
2022/07/31 02:59:30;;;;;;;10.43;8.97;;;21.60;71.60;;;24.12;52.83;101622.63;5116304;28;20211;-63
2022/07/31 03:01:57;;;;;;;8.40;7.47;;;21.50;71.10;;;24.07;53.11;101628.75;5116040;28;20215;-64
2022/07/31 03:04:24;;;;;;;8.60;7.80;;;21.60;71.00;;;24.02;52.99;101625.91;5116133;28;20191;-64
2022/07/31 03:06:53;;;;;;;8.63;7.60;;;21.50;70.90;;;23.98;52.64;101624.78;5114963;28;20188;-64
2022/07/31 03:09:21;;;;;;;9.57;8.57;;;21.50;70.70;;;23.94;53.05;101620.09;5113658;28;20191;-63
2022/07/31 03:11:48;;;;;;;8.60;7.70;;;21.50;71.40;;;23.89;53.54;101618.13;5115666;27;20218;-64
2022/07/31 03:14:17;;;;;;;8.33;7.07;;;21.40;71.40;;;23.89;53.41;101620.81;5116010;28;20191;-64
2022/07/31 03:16:48;;;;;;;9.87;9.00;;;21.40;71.70;;;23.84;54.22;101620.75;5115950;28;20198;-64
2022/07/31 03:19:17;;;;;;;16.43;8.90;;;21.40;72.80;;;23.78;54.48;101612.81;5114704;28;20212;-63
2022/07/31 03:21:45;;;;;;;11.57;9.23;;;21.30;72.90;;;23.74;54.62;101612.47;5115391;27;20216;-64
2022/07/31 03:24:14;;;;;;;9.57;7.50;;;21.30;72.80;;;23.73;54.50;101608.16;5113971;28;20188;-63
2022/07/31 03:26:42;;;;;;;9.83;8.83;;;21.20;73.60;;;23.76;54.47;101615.75;5114862;28;20239;-63
2022/07/31 03:29:09;;;;;;;9.63;8.63;;;21.20;73.10;;;23.79;54.34;101612.59;5115362;28;20197;-63
2022/07/31 03:31:57;;;;;;;9.80;8.80;;;21.20;73.20;;;23.78;54.46;101602.03;5115225;28;20211;-63
2022/07/31 03:34:24;;;;;;;10.03;6.87;;;21.20;73.30;;;23.80;54.53;101602.63;5115660;27;20525;-63
2022/07/31 03:36:51;;;;;;;8.90;7.10;;;21.20;73.10;;;23.83;54.22;101611.03;5116063;28;20218;-63
2022/07/31 03:39:20;;;;;;;8.67;7.87;;;21.20;73.10;;;23.90;53.87;101606.31;5115410;28;20239;-64
2022/07/31 03:41:49;;;;;;;9.37;7.57;;;21.20;73.80;;;23.93;53.74;101605.84;5099466;27;20226;-63
2022/07/31 03:44:18;;;;;;;9.93;7.80;;;21.30;72.70;;;23.95;53.34;101601.03;5095091;28;20211;-63
2022/07/31 03:46:46;;;;;;;8.67;7.30;;;21.30;72.30;;;23.94;53.25;101604.78;5095389;28;20189;-63
2022/07/31 03:49:14;;;;;;;10.23;7.53;;;21.30;71.60;;;23.87;52.84;101606.81;5095281;28;20181;-63
2022/07/31 03:51:42;;;;;;;8.07;7.33;;;21.30;71.20;;;23.84;53.26;101601.94;5094964;28;20294;-63
2022/07/31 03:54:10;;;;;;;8.73;7.27;;;21.30;71.50;;;23.83;53.01;101605.66;5095145;28;20542;-63
2022/07/31 03:56:44;;;;;;;8.40;7.67;;;21.30;72.50;;;23.82;53.52;101604.00;5094973;28;20188;-64
2022/07/31 03:59:14;;;;;;;8.13;6.73;;;21.20;71.80;;;23.83;53.32;101600.28;5074755;28;20240;-64
2022/07/31 04:01:43;;;;;;;8.93;8.00;;;21.20;72.60;;;23.83;53.38;101605.66;5074186;28;20209;-64
2022/07/31 04:04:25;;;;;;;7.90;7.10;;;21.20;71.70;;;23.82;53.17;101609.41;5074469;28;20212;-64
2022/07/31 04:06:52;;;;;;;9.00;7.93;;;21.20;71.30;;;23.80;52.83;101614.19;5074588;28;20196;-64
2022/07/31 04:09:20;;;;;;;9.57;6.03;;;21.20;70.90;;;23.79;52.79;101620.66;5074577;28;20181;-63
2022/07/31 04:11:49;;;;;;;8.73;6.10;;;21.20;70.50;;;23.80;52.30;101616.88;5074061;28;20240;-63
2022/07/31 04:14:16;;;;;;;6.43;5.83;;;21.20;70.30;;;23.81;52.07;101615.84;5083796;28;20192;-63
2022/07/31 04:16:43;;;;;;;7.07;6.47;;;21.20;70.90;;;23.79;51.85;101617.97;5093610;28;20195;-63
2022/07/31 04:19:11;;;;;;;6.17;5.63;;;21.20;69.60;;;23.79;52.19;101620.66;5093940;28;20559;-63
2022/07/31 04:21:38;;;;;;;6.63;6.03;;;21.20;69.90;;;23.84;52.07;101626.13;5093824;28;20222;-63
2022/07/31 04:24:06;;;;;;;6.90;5.90;;;21.20;70.00;;;23.86;51.29;101621.31;5094223;28;20196;-63
2022/07/31 04:26:33;;;;;;;8.73;5.90;;;21.20;69.00;;;23.92;51.51;101625.72;5094269;28;20649;-63
2022/07/31 04:29:03;;;;;;;5.77;5.27;;;21.30;69.40;;;24.02;51.73;101627.78;5094135;28;20538;-63
2022/07/31 04:31:30;;;;;;;6.40;5.80;;;21.30;70.90;;;24.12;51.62;101626.16;5095000;28;20213;-63
2022/07/31 04:33:58;;;;;;;5.37;4.93;;;21.40;69.80;;;24.22;51.19;101615.53;5094142;28;20241;-64
2022/07/31 04:36:25;;;;;;;5.80;5.30;;;21.40;69.40;;;24.34;51.17;101620.06;5094636;28;20193;-63
2022/07/31 04:38:57;;;;;;;5.17;4.63;;;21.50;69.20;;;24.39;49.68;101614.75;5094558;28;20266;-63
2022/07/31 04:41:25;;;;;;;4.80;4.30;;;21.60;67.60;;;24.45;50.00;101619.16;5093466;28;20699;-63
2022/07/31 04:43:52;;;;;;;5.73;4.47;;;21.60;67.80;;;24.53;49.81;101610.69;5094242;28;20193;-63
2022/07/31 04:46:21;;;;;;;4.80;4.20;;;21.70;67.90;;;24.59;49.07;101598.91;5094013;28;20568;-62
2022/07/31 04:48:48;;;;;;;5.30;4.50;;;21.80;66.90;;;24.58;47.26;101603.47;5114298;28;20196;-63
2022/07/31 04:51:17;;;;;;;9.60;4.83;;;21.80;64.40;;;24.52;46.66;101599.09;5113883;27;20204;-63
2022/07/31 04:53:45;;;;;;;4.47;4.07;;;21.80;63.10;;;24.48;47.15;101597.94;5114448;28;20557;-63
2022/07/31 04:59:02;;;;;;;6.27;4.20;;;21.80;62.50;;;24.37;47.23;101598.84;5093970;28;20198;-63
2022/07/31 05:01:32;;;;;;;4.50;4.10;;;21.70;63.00;;;24.38;47.08;101595.09;5093346;28;20212;-62
2022/07/31 05:04:00;;;;;;;4.87;4.30;;;21.70;63.20;;;24.37;46.60;101596.13;5094877;28;20196;-63
2022/07/31 05:06:36;;;;;;;4.30;3.70;;;21.70;62.20;;;24.34;46.95;101596.66;5092643;28;20261;-64
2022/07/31 05:09:05;;;;;;;7.97;4.97;;;21.70;63.00;;;24.38;47.29;101602.34;5093731;28;20185;-63
2022/07/31 05:11:38;;;;;;;5.47;4.70;;;21.60;63.50;;;24.40;47.25;101592.97;5093224;28;20286;-63
2022/07/31 05:14:08;;;;;;;4.13;3.73;;;21.60;64.10;;;24.41;47.68;101591.91;5093591;28;20660;-62
2022/07/31 05:16:37;;;;;;;5.00;4.60;;;21.70;64.80;;;24.42;47.20;101587.31;5093802;28;20193;-64
2022/07/31 05:19:07;;;;;;;5.47;4.03;;;21.70;64.10;;;24.35;47.08;101587.50;5093388;28;20193;-63
2022/07/31 05:21:41;;;;;;;5.77;4.13;;;21.70;63.40;;;24.29;46.96;101593.88;5094135;28;20214;-62
2022/07/31 05:24:19;;;;;;;6.93;4.97;;;21.60;62.80;;;24.21;47.24;101587.00;5092525;28;20221;-61
2022/07/31 05:26:59;;;;;;;5.97;5.37;;;21.60;63.20;;;24.15;47.82;101592.56;5094229;28;20601;-64
2022/07/31 05:29:27;;;;;;;6.53;5.80;;;21.60;63.70;;;24.05;48.86;101593.16;5092964;28;20195;-63
2022/07/31 05:31:56;;;;;;;6.87;6.23;;;21.60;65.00;;;23.95;49.53;101602.91;5095854;28;20217;-63
2022/07/31 05:34:28;;;;;;;6.10;5.50;;;21.50;65.90;;;23.90;49.73;101603.63;5096022;28;20212;-63
2022/07/31 05:36:57;;;;;;;6.20;5.70;;;21.50;66.10;;;23.85;50.38;101598.16;5100740;28;20568;-63
2022/07/31 05:39:25;;;;;;;6.90;6.00;;;21.40;66.80;;;23.84;50.70;101595.72;5113558;28;20192;-64
2022/07/31 05:41:55;;;;;;;7.50;6.70;;;21.40;68.20;;;23.80;51.14;101603.44;5113226;28;20243;-64
2022/07/31 05:44:23;;;;;;;6.60;6.00;;;21.30;68.20;;;23.81;51.18;101597.03;5113307;28;20191;-63
2022/07/31 05:46:51;;;;;;;6.73;5.73;;;21.30;68.40;;;23.86;51.22;101602.50;5112712;28;20260;-63
2022/07/31 05:49:18;;;;;;;7.60;6.03;;;21.30;68.50;;;23.94;51.39;101601.25;5113729;28;20192;-64
2022/07/31 05:51:46;;;;;;;7.43;6.60;;;21.30;68.60;;;24.01;50.72;101594.69;5113264;28;20286;-64
2022/07/31 05:54:13;;;;;;;7.87;6.90;;;21.40;68.20;;;24.09;50.47;101599.72;5112015;28;20199;-63
2022/07/31 05:56:41;;;;;;;5.97;5.40;;;21.40;67.80;;;24.19;49.93;101597.22;5113564;28;20199;-63
2022/07/31 05:59:08;;;;;;;6.13;5.50;;;21.40;67.30;;;24.33;49.60;101596.88;5113357;28;20203;-63
2022/07/31 06:01:36;;;;;;;5.53;4.93;;;21.50;67.00;;;24.48;49.02;101594.44;5113400;28;20744;-64
2022/07/31 06:04:04;;;;;;;8.30;5.53;;;21.60;66.90;;;24.63;48.20;101589.28;5113564;28;20699;-64
2022/07/31 06:06:33;;;;;;;5.17;4.20;;;21.70;65.70;;;24.67;47.70;101590.44;5113351;28;20188;-64
2022/07/31 06:09:00;;;;;;;7.63;4.80;;;21.80;65.00;;;24.75;48.24;101590.00;5113334;28;20196;-63
2022/07/31 06:11:31;;;;;;;5.90;5.33;;;21.90;65.20;;;24.86;47.42;101583.75;5111026;28;20215;-63
2022/07/31 06:13:58;;;;;;;5.83;4.97;;;22.00;65.60;;;24.95;47.17;101589.50;5112859;28;20586;-64
2022/07/31 06:16:26;;;;;;;7.17;5.10;;;22.10;64.10;;;24.99;47.03;101588.75;5112730;28;20188;-63
2022/07/31 06:18:53;;;;;;;6.27;4.73;;;22.10;63.70;;;25.03;46.37;101597.16;5113244;28;20184;-63
2022/07/31 06:21:21;;;;;;;5.87;5.30;;;22.20;62.60;;;25.03;46.04;101591.78;5113087;28;20219;-63
2022/07/31 06:23:48;;;;;;;4.83;4.40;;;22.20;62.30;;;25.03;46.16;101589.88;5113194;28;20192;-63
2022/07/31 06:26:16;;;;;;;4.50;3.70;;;22.30;62.10;;;25.06;46.05;101599.34;5111658;28;20215;-64
2022/07/31 06:28:44;;;;;;;6.13;4.27;;;22.30;61.50;;;25.07;45.97;101599.13;5113079;28;20274;-63
2022/07/31 06:31:17;;;;;;;8.23;4.43;;;22.30;61.40;;;25.02;44.76;101596.34;5113735;28;20208;-63
2022/07/31 06:33:44;;;;;;;4.90;4.33;;;22.30;60.00;;;24.94;45.63;101596.75;5112989;28;20188;-63
2022/07/31 06:36:14;;;;;;;4.93;4.40;;;22.30;60.50;;;24.91;45.72;101591.06;5112857;28;20188;-64
2022/07/31 06:38:41;;;;;;;3.70;3.40;;;22.30;60.70;;;24.95;46.09;101589.50;5113051;28;20192;-63
2022/07/31 06:41:43;;;;;;;5.10;4.23;;;22.40;61.20;;;25.06;46.15;101584.00;5112847;28;20219;-63
2022/07/31 06:43:58;;;;;;;5.47;4.17;;;22.40;61.40;;;25.13;45.71;101584.63;5115055;28;20188;-63
2022/07/31 06:46:25;;;;;;;6.30;4.10;;;22.40;61.80;;;25.06;45.59;101580.47;5116940;28;20206;-63
2022/07/31 06:48:53;;;;;;;5.50;3.93;;;22.40;60.40;;;25.12;45.62;101583.03;5117181;27;20199;-63
2022/07/31 06:51:20;;;;;;;3.50;3.20;;;22.50;60.90;;;25.23;45.36;101584.78;5119421;28;20203;-63
2022/07/31 06:54:06;;;;;;;3.73;3.37;;;22.50;61.20;;;25.40;45.89;101585.53;5119861;28;20207;-63
2022/07/31 06:56:36;;;;;;;4.80;4.33;;;22.60;61.60;;;25.56;45.23;101578.44;5118849;28;20202;-63
2022/07/31 06:59:06;;;;;;;5.03;3.40;;;22.70;61.10;;;25.70;44.46;101578.88;5114394;27;20195;-62
2022/07/31 07:01:33;;;;;;;3.60;3.07;;;22.80;60.80;;;25.78;44.95;101581.09;5115510;27;20242;-62
2022/07/31 07:04:01;;;;;;;4.80;3.37;;;22.80;60.80;;;25.88;44.39;101582.03;5115969;28;20188;-63
2022/07/31 07:06:29;;;;;;;4.97;3.43;;;22.90;60.70;;;25.92;44.34;101582.31;5116429;28;20226;-63
2022/07/31 07:08:56;;;;;;;4.17;3.33;;;23.00;60.00;;;25.97;44.43;101574.28;5116860;28;20656;-63
2022/07/31 07:11:23;;;;;;;3.20;2.90;;;23.10;59.90;;;26.06;44.53;101565.47;5116099;28;20207;-63
2022/07/31 07:13:52;;;;;;;3.40;3.10;;;23.20;60.00;;;26.12;44.16;101560.97;5115759;28;20188;-64
2022/07/31 07:16:19;;;;;;;4.00;3.33;;;23.20;59.80;;;26.16;43.75;101562.06;5114151;28;20196;-63
2022/07/31 07:18:47;;;;;;;3.20;2.17;;;23.30;59.70;;;26.20;43.77;101564.00;5115642;28;20184;-63
2022/07/31 07:21:14;;;;;;;4.17;3.03;;;23.40;59.90;;;26.23;43.48;101562.66;5115427;28;20223;-63
2022/07/31 07:23:42;;;;;;;4.57;2.80;;;23.40;59.10;;;26.27;43.41;101552.97;5115909;28;20536;-63
2022/07/31 07:26:10;;;;;;;3.73;3.40;;;23.40;59.10;;;26.27;43.32;101547.56;5115756;28;20196;-63
2022/07/31 07:28:37;;;;;;;3.10;2.70;;;23.50;59.10;;;26.28;44.01;101543.81;5115680;28;20652;-63
2022/07/31 07:31:06;;;;;;;3.60;3.10;;;23.50;59.40;;;26.40;44.19;101547.16;5115195;28;20187;-63
2022/07/31 07:33:33;;;;;;;4.30;3.23;;;23.60;59.50;;;26.48;43.86;101543.94;5103276;28;20275;-63
2022/07/31 07:36:08;;;;;;;4.63;3.10;;;23.60;59.30;;;26.54;43.34;101534.00;5095629;28;20261;-62
2022/07/31 07:38:52;;;;;;;3.40;2.90;;;23.60;60.10;;;26.59;43.77;101532.16;5095151;28;20214;-63
2022/07/31 07:41:22;;;;;;;4.20;2.97;;;23.70;59.70;;;26.65;43.45;101533.78;5094735;28;20295;-63
2022/07/31 07:43:49;;;;;;;3.17;2.93;;;23.80;59.60;;;26.72;44.11;101534.38;5094845;28;20193;-64
2022/07/31 07:46:21;;;;;;;4.47;2.70;;;23.80;59.70;;;26.76;43.60;101540.09;5094566;28;20181;-63
2022/07/31 07:48:50;;;;;;;4.83;3.50;;;23.90;59.80;;;26.80;43.59;101533.91;5095913;28;20239;-64
2022/07/31 07:51:18;;;;;;;3.30;3.03;;;23.90;59.80;;;26.80;44.17;101536.63;5094611;28;20242;-63
2022/07/31 07:53:46;;;;;;;5.77;2.90;;;23.90;59.70;;;26.80;44.28;101525.81;5094568;28;20200;-63
2022/07/31 07:56:14;;;;;;;5.00;3.40;;;24.00;59.80;;;26.84;44.24;101529.59;5094810;28;20241;-63
2022/07/31 07:58:42;;;;;;;3.80;2.90;;;24.00;59.90;;;26.92;43.94;101532.88;5094107;28;20184;-63
2022/07/31 08:01:09;;;;;;;4.47;3.83;;;24.00;60.00;;;26.98;43.93;101527.22;5093812;28;20217;-63
2022/07/31 08:03:38;;;;;;;3.00;2.70;;;24.10;60.10;;;27.06;43.49;101523.19;5094587;28;20548;-64
2022/07/31 08:06:19;;;;;;;3.70;3.40;;;24.10;60.00;;;27.14;43.67;101522.72;5095007;28;20220;-64
2022/07/31 08:08:46;;;;;;;4.27;3.43;;;24.20;59.90;;;27.23;42.76;101518.41;5094306;28;20552;-63
2022/07/31 08:11:14;;;;;;;3.83;3.17;;;24.20;59.20;;;27.34;43.05;101520.06;5093814;28;20189;-62
2022/07/31 08:13:45;;;;;;;5.53;2.43;;;24.30;59.20;;;27.48;42.79;101522.00;5094355;28;20695;-64
2022/07/31 08:16:18;;;;;;;2.93;2.53;;;24.40;59.00;;;27.59;41.16;101517.44;5094255;28;20211;-63
2022/07/31 08:18:47;;;;;;;2.77;2.30;;;24.50;57.50;;;27.64;41.32;101517.47;5092960;28;20203;-62
2022/07/31 08:21:14;;;;;;;2.17;2.07;;;24.60;57.10;;;27.74;41.35;101520.16;5093402;28;20569;-63
2022/07/31 08:23:42;;;;;;;5.07;2.60;;;24.70;57.20;;;27.77;39.46;101511.50;5095565;28;20270;-63
2022/07/31 08:26:09;;;;;;;4.20;2.57;;;24.80;54.70;;;27.78;39.28;101501.50;5093931;28;20204;-63
2022/07/31 08:28:39;;;;;;;3.67;2.60;;;24.80;54.10;;;27.85;39.58;101504.75;5093810;28;20200;-63
2022/07/31 08:31:07;;;;;;;4.37;2.10;;;24.90;54.40;;;28.21;39.42;101511.81;5094085;28;20185;-63
2022/07/31 08:33:35;;;;;;;2.33;2.03;;;25.10;55.10;;;28.61;38.75;101513.66;5094126;28;20199;-63
2022/07/31 08:36:07;;;;;;;2.87;2.00;;;25.30;54.80;;;28.99;37.58;101504.84;5094276;28;20581;-64
2022/07/31 08:38:35;;;;;;;2.60;2.10;;;25.50;53.10;;;29.12;36.89;101498.81;5094697;28;20221;-62
2022/07/31 08:41:03;;;;;;;3.87;2.47;;;25.70;52.10;;;29.09;36.91;101504.00;5092567;28;20541;-63
2022/07/31 08:43:30;;;;;;;2.87;2.40;;;25.90;51.60;;;29.23;37.28;101508.56;5092787;28;20641;-63
2022/07/31 08:46:20;;;;;;;2.43;2.23;;;26.00;52.00;;;29.35;35.76;101495.47;5093581;28;20196;-63
2022/07/31 08:48:53;;;;;;;2.97;2.20;;;26.20;50.30;;;29.48;36.18;101504.88;5093861;28;20195;-62
2022/07/31 08:51:22;;;;;;;3.70;2.43;;;26.30;50.40;;;29.91;36.01;101501.31;5093100;28;20606;-62
2022/07/31 08:53:51;;;;;;;2.83;2.17;;;26.50;50.90;;;30.92;34.09;101510.41;5093273;28;20204;-64
2022/07/31 08:56:19;;;;;;;2.63;2.17;;;26.80;50.30;;;31.50;33.17;101495.44;5094604;28;20641;-63
2022/07/31 08:58:47;;;;;;;2.60;2.40;;;27.20;49.50;;;31.75;32.25;101492.34;5092081;28;20190;-64
2022/07/31 09:01:14;;;;;;;3.53;2.07;;;27.60;47.80;;;31.86;32.37;101487.50;5092651;28;20224;-64
2022/07/31 09:03:42;;;;;;;4.07;2.90;;;27.90;47.20;;;31.64;32.10;101495.53;5093536;28;20546;-62
2022/07/31 09:06:10;;;;;;;2.40;2.20;;;28.10;45.70;;;31.33;32.33;101484.25;5092498;28;20192;-62
2022/07/31 09:08:38;;;;;;;2.87;2.50;;;28.10;45.20;;;31.02;33.43;101493.94;5092955;28;20188;-61
2022/07/31 09:11:09;;;;;;;2.93;2.33;;;28.10;46.00;;;30.65;32.98;101484.56;5091918;28;20196;-63
2022/07/31 09:13:37;;;;;;;3.03;2.37;;;27.90;45.20;;;30.21;33.69;101483.94;5112978;28;20192;-64
2022/07/31 09:16:05;;;;;;;3.33;2.50;;;27.60;45.50;;;29.90;34.69;101471.75;5113402;27;20188;-63
2022/07/31 09:18:33;;;;;;;2.60;2.40;;;27.50;46.20;;;29.81;35.26;101470.75;5113536;28;20656;-64
2022/07/31 09:21:04;;;;;;;2.93;2.30;;;27.30;47.10;;;29.88;35.10;101468.50;5113042;28;20327;-63
2022/07/31 09:23:32;;;;;;;3.43;2.07;;;27.30;47.40;;;29.82;34.62;101466.91;5113797;28;20601;-63
2022/07/31 09:26:04;;;;;;;3.80;2.63;;;27.10;46.40;;;29.46;34.94;101467.16;5113425;28;20192;-63
2022/07/31 09:28:35;;;;;;;3.23;2.10;;;27.00;46.60;;;29.37;35.31;101468.88;5112200;28;20206;-64
2022/07/31 09:31:04;;;;;;;4.43;2.57;;;26.90;47.30;;;29.40;35.69;101465.59;5112971;28;20200;-63
2022/07/31 09:33:33;;;;;;;3.73;2.50;;;26.90;47.90;;;29.42;35.53;101463.41;5095202;28;20235;-64
2022/07/31 09:36:00;;;;;;;2.13;2.00;;;26.90;47.70;;;29.46;35.91;101464.47;5113735;28;20195;-63
2022/07/31 09:38:34;;;;;;;2.90;2.30;;;26.90;47.80;;;29.46;35.25;101460.94;5113345;28;20195;-62
2022/07/31 09:41:11;;;;;;;2.30;2.10;;;26.80;47.70;;;29.50;35.59;101460.06;5094926;28;20700;-62
2022/07/31 09:44:02;;;;;;;3.57;2.67;;;26.80;48.20;;;29.42;35.81;101449.03;5113339;28;20191;-60
2022/07/31 09:46:41;;;;;;;2.40;2.20;;;26.80;48.30;;;29.43;36.39;101462.28;5112037;28;20242;-64
2022/07/31 09:49:09;;;;;;;5.67;2.90;;;26.80;48.80;;;29.36;35.96;101456.38;5113409;28;20203;-64
2022/07/31 09:51:44;;;;;;;3.37;2.90;;;26.80;48.40;;;29.31;35.95;101456.41;5112893;28;20210;-64
2022/07/31 09:54:21;;;;;;;2.63;2.33;;;26.80;49.20;;;29.32;36.41;101449.91;5113198;28;20198;-63
2022/07/31 09:56:50;;;;;;;2.40;2.13;;;26.80;48.90;;;29.42;36.12;101451.75;5113047;28;20190;-64
2022/07/31 09:59:18;;;;;;;3.57;2.90;;;26.80;49.10;;;29.48;36.33;101453.31;5113123;28;20190;-64
2022/07/31 10:01:47;;;;;;;3.27;2.60;;;26.80;49.30;;;29.49;36.45;101442.19;5104560;28;20689;-63
2022/07/31 10:04:18;;;;;;;4.20;2.47;;;26.80;49.10;;;29.57;36.61;101446.22;5093053;28;20276;-63
2022/07/31 10:06:48;;;;;;;5.53;3.07;;;26.80;49.40;;;29.55;36.45;101448.38;5092681;28;20204;-62
2022/07/31 10:09:20;;;;;;;3.57;2.67;;;26.80;49.10;;;29.59;36.19;101446.72;5091743;28;20206;-63
2022/07/31 10:11:53;;;;;;;2.97;2.47;;;26.90;49.20;;;29.54;36.11;101449.47;5092598;28;20575;-63
2022/07/31 10:14:31;;;;;;;3.23;2.40;;;26.90;49.20;;;29.47;36.76;101447.09;5093031;28;20192;-62
2022/07/31 10:17:03;;;;;;;3.27;2.37;;;26.90;49.60;;;29.52;36.77;101453.56;5092926;28;20194;-63
2022/07/31 10:19:37;;;;;;;4.60;3.00;;;26.90;49.60;;;29.52;36.82;101444.31;5097558;28;20231;-63
2022/07/31 10:22:08;;;;;;;4.53;3.03;;;26.90;49.60;;;29.60;36.31;101442.13;5095795;28;20212;-63
2022/07/31 10:24:44;;;;;;;2.80;2.60;;;26.90;49.00;;;29.57;36.00;101434.53;5096654;28;20204;-63
2022/07/31 10:27:17;;;;;;;4.80;2.27;;;26.90;48.70;;;29.71;36.09;101424.63;5096331;28;20196;-63